createdAt,value
2023-07-06T00:00:44.846Z,17.90
2023-07-06T00:03:15.624Z,17.80
2023-07-06T00:05:45.934Z,17.90
2023-07-06T00:08:13.845Z,17.90
2023-07-06T00:10:41.905Z,17.80
2023-07-06T00:13:10.744Z,17.80
2023-07-06T00:15:38.979Z,17.80
2023-07-06T00:18:08.717Z,17.70
2023-07-06T00:20:39.072Z,17.50
2023-07-06T00:23:07.137Z,17.40
2023-07-06T00:25:35.157Z,17.40
2023-07-06T00:28:03.869Z,17.30
2023-07-06T00:30:42.100Z,17.20
2023-07-06T00:33:12.539Z,17.20
2023-07-06T00:35:41.528Z,17.20
2023-07-06T00:38:11.348Z,17.20
2023-07-06T00:40:40.701Z,17.20
2023-07-06T00:43:11.427Z,17.10
2023-07-06T00:45:39.956Z,17.00
2023-07-06T00:48:27.345Z,17.00
2023-07-06T00:50:58.513Z,16.90
2023-07-06T00:53:30.676Z,16.80
2023-07-06T00:55:59.255Z,16.70
2023-07-06T00:58:31.394Z,16.60
2023-07-06T01:01:01.478Z,16.50
2023-07-06T01:03:31.477Z,16.40
2023-07-06T01:06:04.396Z,16.30
2023-07-06T01:08:36.425Z,16.30
2023-07-06T01:11:05.476Z,16.20
2023-07-06T01:13:34.969Z,16.20
2023-07-06T01:16:19.538Z,16.30
2023-07-06T01:18:55.847Z,16.20
2023-07-06T01:21:32.474Z,16.10
2023-07-06T01:24:30.552Z,16.10
2023-07-06T01:27:20.376Z,16.10
2023-07-06T01:30:09.372Z,16.10
2023-07-06T01:32:41.789Z,16.00
2023-07-06T01:35:15.472Z,16.10
2023-07-06T01:37:46.149Z,16.10
2023-07-06T01:40:14.568Z,16.00
2023-07-06T01:42:43.635Z,16.00
2023-07-06T01:45:17.065Z,16.00
2023-07-06T01:47:49.460Z,15.90
2023-07-06T01:50:21.791Z,15.90
2023-07-06T01:53:01.100Z,15.80
2023-07-06T01:55:32.808Z,15.60
2023-07-06T01:58:09.518Z,15.50
2023-07-06T02:00:39.833Z,15.50
2023-07-06T02:03:09.966Z,15.40
2023-07-06T02:05:41.519Z,15.40
2023-07-06T02:08:10.008Z,15.30
2023-07-06T02:10:37.805Z,15.30
2023-07-06T02:13:05.536Z,15.20
2023-07-06T02:15:33.399Z,15.20
2023-07-06T02:18:02.831Z,15.30
2023-07-06T02:20:32.100Z,15.40
2023-07-06T02:23:08.983Z,15.40
2023-07-06T02:25:36.728Z,15.40
2023-07-06T02:28:04.790Z,15.40
2023-07-06T02:30:32.549Z,15.40
2023-07-06T02:33:00.716Z,15.30
2023-07-06T02:35:28.467Z,15.30
2023-07-06T02:37:57.555Z,15.30
2023-07-06T02:40:25.328Z,15.20
2023-07-06T02:42:53.893Z,15.10
2023-07-06T02:45:21.681Z,15.00
2023-07-06T02:47:49.422Z,15.00
2023-07-06T02:50:17.295Z,15.00
2023-07-06T02:52:45.617Z,15.00
2023-07-06T02:55:14.781Z,14.90
2023-07-06T02:57:42.540Z,14.90
2023-07-06T03:00:14.860Z,14.80
2023-07-06T03:02:42.910Z,14.80
2023-07-06T03:05:11.232Z,14.70
2023-07-06T03:07:39.353Z,14.60
2023-07-06T03:10:08.861Z,14.50
2023-07-06T03:12:38.777Z,14.50
2023-07-06T03:15:07.563Z,14.50
2023-07-06T03:17:35.386Z,14.50
2023-07-06T03:20:04.056Z,14.40
2023-07-06T03:22:32.303Z,14.40
2023-07-06T03:25:00.703Z,14.40
2023-07-06T03:27:28.720Z,14.40
2023-07-06T03:29:57.829Z,14.50
2023-07-06T03:32:26.204Z,14.40
2023-07-06T03:34:54.135Z,14.40
2023-07-06T03:37:21.838Z,14.40
2023-07-06T03:39:49.578Z,14.40
2023-07-06T03:42:18.068Z,14.30
2023-07-06T03:44:46.572Z,14.30
2023-07-06T03:47:15.754Z,14.20
2023-07-06T03:49:43.504Z,14.10
2023-07-06T03:52:14.973Z,14.10
2023-07-06T03:54:42.958Z,14.10
2023-07-06T03:57:11.569Z,14.20
2023-07-06T03:59:39.814Z,14.10
2023-07-06T04:02:07.892Z,14.10
2023-07-06T04:04:37.336Z,14.10
2023-07-06T04:07:05.401Z,14.10
2023-07-06T04:09:33.955Z,14.00
2023-07-06T04:12:02.368Z,14.00
2023-07-06T04:14:30.202Z,13.90
2023-07-06T04:16:58.239Z,13.90
2023-07-06T04:19:26.355Z,13.90
2023-07-06T04:21:56.227Z,13.90
2023-07-06T04:24:26.579Z,13.90
2023-07-06T04:26:54.346Z,13.90
2023-07-06T04:29:23.731Z,14.00
2023-07-06T04:31:51.490Z,14.10
2023-07-06T04:34:19.929Z,14.10
2023-07-06T04:36:47.910Z,14.10
2023-07-06T04:39:17.359Z,14.10
2023-07-06T04:41:45.447Z,14.10
2023-07-06T04:44:13.216Z,14.20
2023-07-06T04:46:41.306Z,14.20
2023-07-06T04:49:09.125Z,14.20
2023-07-06T04:51:37.182Z,14.30
2023-07-06T04:54:05.460Z,14.40
2023-07-06T04:56:38.601Z,14.50
2023-07-06T04:59:06.514Z,14.60
2023-07-06T05:01:34.301Z,14.70
2023-07-06T05:04:02.405Z,14.80
2023-07-06T05:06:30.358Z,15.00
2023-07-06T05:08:58.089Z,15.00
2023-07-06T05:11:26.215Z,15.10
2023-07-06T05:13:55.268Z,15.10
2023-07-06T05:16:23.063Z,15.20
2023-07-06T05:18:52.589Z,15.40
2023-07-06T05:21:20.315Z,15.60
2023-07-06T05:23:48.134Z,15.70
2023-07-06T05:26:16.636Z,15.90
2023-07-06T05:28:44.408Z,16.10
2023-07-06T05:31:13.532Z,16.20
2023-07-06T05:33:41.290Z,16.40
2023-07-06T05:36:09.049Z,16.40
2023-07-06T05:38:36.742Z,16.50
2023-07-06T05:41:05.370Z,16.70
2023-07-06T05:43:33.160Z,16.90
2023-07-06T05:46:00.949Z,17.10
2023-07-06T05:48:31.296Z,17.20
2023-07-06T05:50:59.016Z,17.40
2023-07-06T05:53:28.450Z,17.70
2023-07-06T05:55:56.347Z,18.00
2023-07-06T05:58:24.279Z,18.10
2023-07-06T06:00:53.597Z,18.30
2023-07-06T06:03:21.372Z,18.70
2023-07-06T06:05:52.568Z,19.00
2023-07-06T06:08:20.335Z,19.70
2023-07-06T06:10:51.224Z,20.60
2023-07-06T06:13:19.565Z,21.60
2023-07-06T06:15:48.773Z,22.40
2023-07-06T06:18:16.467Z,22.20
2023-07-06T06:20:45.214Z,22.30
2023-07-06T06:23:14.414Z,21.90
2023-07-06T06:25:42.107Z,21.00
2023-07-06T06:28:10.204Z,20.90
2023-07-06T06:30:39.797Z,21.30
2023-07-06T06:33:10.324Z,21.40
2023-07-06T06:35:39.279Z,21.90
2023-07-06T06:38:07.211Z,22.40
2023-07-06T06:40:39.836Z,23.00
2023-07-06T06:43:07.739Z,24.00
2023-07-06T06:45:36.019Z,24.50
2023-07-06T06:48:05.421Z,25.30
2023-07-06T06:50:33.280Z,25.40
2023-07-06T06:53:01.670Z,24.70
2023-07-06T06:55:29.368Z,25.00
2023-07-06T06:57:58.407Z,25.60
2023-07-06T07:00:26.248Z,26.30
2023-07-06T07:02:53.994Z,27.30
2023-07-06T07:05:21.740Z,28.10
2023-07-06T07:07:51.502Z,29.50
2023-07-06T07:10:19.590Z,30.20
2023-07-06T07:12:50.955Z,31.20
2023-07-06T07:15:21.470Z,31.80
2023-07-06T07:17:49.357Z,32.20
2023-07-06T07:20:18.341Z,32.90
2023-07-06T07:22:46.666Z,33.60
2023-07-06T07:25:18.210Z,34.00
2023-07-06T07:27:47.317Z,34.80
2023-07-06T07:30:15.687Z,35.70
2023-07-06T07:32:48.280Z,36.20
2023-07-06T07:35:16.083Z,36.70
2023-07-06T07:37:48.110Z,37.30
2023-07-06T07:40:19.232Z,37.30
2023-07-06T07:42:47.880Z,37.30
2023-07-06T07:45:15.791Z,37.70
2023-07-06T07:47:48.758Z,37.70
2023-07-06T07:50:18.610Z,38.20
2023-07-06T07:52:46.440Z,37.60
2023-07-06T07:55:15.110Z,37.50
2023-07-06T07:57:45.637Z,37.80
2023-07-06T08:00:13.844Z,37.90
2023-07-06T08:03:07.186Z,38.40
2023-07-06T08:05:38.404Z,38.30
2023-07-06T08:08:13.714Z,38.90
2023-07-06T08:10:44.390Z,39.50
2023-07-06T08:13:12.071Z,40.10
2023-07-06T08:15:40.539Z,40.10
2023-07-06T08:18:13.843Z,40.10
2023-07-06T08:21:09.241Z,39.80
2023-07-06T08:23:33.881Z,39.50
2023-07-06T08:26:05.067Z,40.50
2023-07-06T08:28:33.326Z,40.90
2023-07-06T08:31:04.097Z,41.00
2023-07-06T08:33:39.337Z,41.30
2023-07-06T08:36:08.640Z,41.20
2023-07-06T08:38:40.038Z,41.20
2023-07-06T08:41:30.570Z,41.40
2023-07-06T08:44:00.510Z,41.70
2023-07-06T08:46:33.413Z,41.90
2023-07-06T08:49:07.645Z,42.30
2023-07-06T08:51:38.153Z,41.70
2023-07-06T08:54:22.198Z,41.80
2023-07-06T08:56:52.906Z,42.10
2023-07-06T08:59:36.592Z,42.30
2023-07-06T09:02:15.875Z,42.70
2023-07-06T09:04:47.266Z,42.30
2023-07-06T09:07:17.771Z,42.20
2023-07-06T09:09:48.246Z,42.50
2023-07-06T09:12:21.698Z,42.10
2023-07-06T09:14:52.024Z,40.80
2023-07-06T09:17:23.370Z,41.40
2023-07-06T09:19:53.508Z,40.90
2023-07-06T09:22:22.785Z,40.10
2023-07-06T09:24:51.012Z,40.00
2023-07-06T09:27:21.745Z,40.80
2023-07-06T09:30:03.365Z,39.30
2023-07-06T09:32:35.936Z,39.60
2023-07-06T09:35:21.170Z,40.20
2023-07-06T09:37:52.435Z,41.00
2023-07-06T09:40:31.618Z,41.70
2023-07-06T09:43:01.889Z,41.40
2023-07-06T09:45:31.529Z,39.60
2023-07-06T09:48:03.418Z,39.30
2023-07-06T09:50:39.923Z,39.70
2023-07-06T09:53:13.531Z,39.00
2023-07-06T09:55:42.546Z,39.70
2023-07-06T09:58:17.001Z,40.40
2023-07-06T10:00:51.388Z,40.60
2023-07-06T10:03:33.852Z,41.30
2023-07-06T10:06:19.754Z,41.70
2023-07-06T10:08:57.805Z,41.00
2023-07-06T10:11:35.665Z,41.60
2023-07-06T10:14:10.732Z,42.40
2023-07-06T10:16:49.378Z,42.80
2023-07-06T10:19:23.894Z,41.10
2023-07-06T10:22:05.908Z,41.60
2023-07-06T10:24:43.849Z,42.40
2023-07-06T10:27:19.475Z,43.10
2023-07-06T10:29:57.087Z,39.70
2023-07-06T10:32:31.176Z,36.20
2023-07-06T10:35:05.677Z,38.00
2023-07-06T10:37:37.211Z,38.60
2023-07-06T10:40:19.139Z,39.40
2023-07-06T10:42:53.253Z,40.50
2023-07-06T10:45:25.805Z,41.20
2023-07-06T10:48:09.912Z,42.00
2023-07-06T10:50:50.937Z,42.60
2023-07-06T10:53:26.169Z,43.00
2023-07-06T10:56:05.397Z,42.30
2023-07-06T10:58:36.527Z,42.10
2023-07-06T11:01:12.295Z,40.20
2023-07-06T11:03:44.189Z,38.90
2023-07-06T11:06:16.406Z,39.00
2023-07-06T11:09:06.033Z,39.20
2023-07-06T11:11:39.176Z,39.40
2023-07-06T11:14:32.031Z,40.00
2023-07-06T11:17:04.129Z,41.30
2023-07-06T11:19:37.644Z,41.60
2023-07-06T11:22:11.942Z,42.30
2023-07-06T11:24:45.957Z,41.90
2023-07-06T11:27:25.469Z,42.10
2023-07-06T11:29:56.316Z,42.40
2023-07-06T11:32:35.555Z,41.30
2023-07-06T11:35:14.226Z,40.30
2023-07-06T11:37:58.962Z,38.20
2023-07-06T11:40:42.306Z,36.40
2023-07-06T11:43:28.435Z,36.70
2023-07-06T11:46:04.789Z,36.00
2023-07-06T11:48:39.612Z,37.50
2023-07-06T11:51:10.657Z,39.00
2023-07-06T11:53:55.161Z,40.00
2023-07-06T11:56:40.681Z,41.10
2023-07-06T11:59:27.040Z,39.90
2023-07-06T12:01:59.357Z,40.60
2023-07-06T12:04:29.511Z,41.00
2023-07-06T12:06:58.940Z,41.10
2023-07-06T12:09:26.719Z,40.80
2023-07-06T12:12:02.954Z,41.20
2023-07-06T12:14:35.248Z,41.20
2023-07-06T12:17:06.868Z,41.20
2023-07-06T12:19:38.816Z,41.50
2023-07-06T12:22:06.954Z,41.60
2023-07-06T12:24:37.611Z,41.50
2023-07-06T12:27:13.798Z,39.80
2023-07-06T12:29:46.303Z,38.40
2023-07-06T12:32:17.549Z,38.50
2023-07-06T12:34:47.310Z,38.10
2023-07-06T12:37:20.304Z,37.60
2023-07-06T12:39:50.213Z,37.20
2023-07-06T12:42:22.654Z,37.20
2023-07-06T12:44:53.333Z,37.60
2023-07-06T12:47:29.564Z,37.00
2023-07-06T12:50:02.540Z,37.30
2023-07-06T12:52:31.868Z,37.10
2023-07-06T12:54:59.841Z,36.60
2023-07-06T12:57:31.774Z,36.60
2023-07-06T13:00:16.263Z,36.90
2023-07-06T13:02:46.743Z,36.20
2023-07-06T13:05:19.094Z,35.20
2023-07-06T13:07:52.497Z,34.30
2023-07-06T13:10:24.601Z,33.70
2023-07-06T13:12:56.271Z,32.80
2023-07-06T13:15:26.097Z,32.20
2023-07-06T13:18:00.122Z,31.80
2023-07-06T13:20:27.944Z,31.20
2023-07-06T13:22:55.646Z,30.40
2023-07-06T13:25:25.066Z,30.10
2023-07-06T13:27:52.910Z,29.90
2023-07-06T13:30:23.038Z,29.50
2023-07-06T13:32:51.135Z,29.10
2023-07-06T13:35:19.302Z,29.10
2023-07-06T13:37:47.703Z,29.10
2023-07-06T13:40:16.618Z,29.10
2023-07-06T13:42:47.360Z,29.00
2023-07-06T13:45:18.835Z,29.00
2023-07-06T13:47:47.902Z,28.90
2023-07-06T13:50:15.756Z,29.00
2023-07-06T13:52:45.804Z,28.90
2023-07-06T13:55:22.013Z,28.90
2023-07-06T13:57:50.933Z,28.90
2023-07-06T14:00:19.190Z,28.90
2023-07-06T14:02:49.854Z,28.80
2023-07-06T14:05:20.946Z,28.70
2023-07-06T14:07:50.763Z,28.40
2023-07-06T14:10:20.280Z,28.30
2023-07-06T14:12:53.389Z,28.00
2023-07-06T14:15:22.449Z,27.90
2023-07-06T14:17:52.580Z,28.00
2023-07-06T14:20:23.610Z,27.90
2023-07-06T14:22:52.611Z,27.90
2023-07-06T14:25:24.041Z,28.00
2023-07-06T14:27:52.028Z,28.20
2023-07-06T14:30:20.272Z,28.20
2023-07-06T14:32:48.881Z,28.20
2023-07-06T14:35:18.596Z,28.20
2023-07-06T14:37:46.464Z,28.20
2023-07-06T14:40:14.783Z,28.10
2023-07-06T14:42:42.516Z,28.10
2023-07-06T14:45:10.969Z,27.90
2023-07-06T14:47:38.772Z,28.00
2023-07-06T14:50:10.000Z,28.00
2023-07-06T14:52:39.716Z,28.00
2023-07-06T14:55:09.632Z,28.10
2023-07-06T14:57:37.601Z,28.00
2023-07-06T15:00:11.135Z,28.00
2023-07-06T15:02:41.467Z,27.90
2023-07-06T15:05:09.902Z,27.70
2023-07-06T15:07:39.247Z,27.80
2023-07-06T15:10:08.125Z,27.80
2023-07-06T15:12:35.854Z,27.80
2023-07-06T15:15:04.861Z,27.80
2023-07-06T15:17:32.616Z,27.80
2023-07-06T15:20:00.475Z,27.80
2023-07-06T15:22:28.220Z,27.80
2023-07-06T15:24:57.273Z,27.70
2023-07-06T15:27:25.037Z,27.60
2023-07-06T15:29:52.823Z,27.60
2023-07-06T15:32:23.534Z,27.40
2023-07-06T15:35:00.618Z,27.30
2023-07-06T15:37:30.276Z,27.40
2023-07-06T15:39:59.517Z,27.40
2023-07-06T15:42:28.289Z,27.40
2023-07-06T15:44:56.260Z,27.40
2023-07-06T15:47:25.142Z,27.30
2023-07-06T15:49:52.912Z,27.30
2023-07-06T15:52:20.653Z,27.30
2023-07-06T15:54:49.663Z,27.30
2023-07-06T15:57:20.442Z,27.40
2023-07-06T15:59:55.265Z,27.40
2023-07-06T16:03:04.968Z,27.20
2023-07-06T16:05:32.916Z,27.20
2023-07-06T16:08:00.631Z,27.30
2023-07-06T16:10:28.345Z,27.20
2023-07-06T16:12:57.430Z,27.30
2023-07-06T16:15:25.173Z,27.30
2023-07-06T16:17:52.950Z,27.30
2023-07-06T16:20:22.293Z,27.30
2023-07-06T16:22:50.045Z,27.10
2023-07-06T16:25:17.985Z,27.10
2023-07-06T16:27:45.650Z,27.10
2023-07-06T16:30:13.481Z,27.00
2023-07-06T16:32:41.200Z,27.00
2023-07-06T16:35:09.148Z,26.90
2023-07-06T16:37:38.324Z,26.90
2023-07-06T16:40:08.558Z,26.90
2023-07-06T16:42:36.532Z,26.90
2023-07-06T16:45:04.840Z,27.00
2023-07-06T16:47:33.212Z,26.90
2023-07-06T16:50:01.015Z,26.80
2023-07-06T16:52:28.810Z,26.70
2023-07-06T16:54:57.883Z,26.70
2023-07-06T16:57:25.702Z,26.70
2023-07-06T16:59:53.586Z,26.70
2023-07-06T17:02:22.191Z,26.70
2023-07-06T17:04:49.936Z,26.70
2023-07-06T17:07:18.897Z,26.60
2023-07-06T17:09:47.435Z,26.60
2023-07-06T17:12:21.334Z,26.40
2023-07-06T17:14:49.207Z,26.40
2023-07-06T17:17:16.914Z,26.30
2023-07-06T17:19:44.625Z,26.40
2023-07-06T17:22:12.330Z,26.30
2023-07-06T17:24:40.031Z,26.30
2023-07-06T17:27:07.798Z,26.20
2023-07-06T17:29:36.916Z,26.20
2023-07-06T17:32:05.034Z,26.20
2023-07-06T17:34:32.999Z,26.20
2023-07-06T17:37:00.784Z,26.20
2023-07-06T17:39:28.657Z,26.20
2023-07-06T17:41:56.396Z,26.10
2023-07-06T17:44:24.150Z,26.10
2023-07-06T17:46:53.474Z,26.10
2023-07-06T17:49:22.503Z,26.10
2023-07-06T17:51:50.245Z,26.00
2023-07-06T17:54:19.577Z,26.00
2023-07-06T17:56:47.317Z,26.00
2023-07-06T17:59:15.028Z,25.90
2023-07-06T18:01:43.064Z,25.80
2023-07-06T18:04:12.279Z,25.80
2023-07-06T18:06:40.157Z,25.70
2023-07-06T18:09:09.053Z,25.70
2023-07-06T18:11:38.108Z,25.70
2023-07-06T18:14:06.321Z,25.70
2023-07-06T18:16:37.434Z,25.70
2023-07-06T18:19:05.605Z,25.60
2023-07-06T18:21:34.741Z,25.60
2023-07-06T18:24:02.500Z,25.50
2023-07-06T18:26:30.388Z,25.50
2023-07-06T18:28:58.292Z,25.40
2023-07-06T18:31:26.121Z,25.30
2023-07-06T18:33:53.934Z,25.30
2023-07-06T18:36:21.705Z,25.20
2023-07-06T18:38:50.727Z,25.10
2023-07-06T18:41:18.486Z,24.90
2023-07-06T18:43:46.540Z,24.80
2023-07-06T18:46:14.450Z,24.60
2023-07-06T18:48:42.228Z,24.40
2023-07-06T18:51:10.014Z,24.10
2023-07-06T18:53:45.929Z,24.00
2023-07-06T18:56:15.620Z,23.80
2023-07-06T18:58:43.710Z,23.60
2023-07-06T19:01:12.708Z,23.40
2023-07-06T19:03:41.097Z,23.20
2023-07-06T19:06:17.132Z,23.10
2023-07-06T19:08:47.274Z,23.00
2023-07-06T19:11:17.561Z,22.90
2023-07-06T19:13:45.714Z,22.80
2023-07-06T19:16:15.137Z,22.70
2023-07-06T19:18:43.749Z,22.60
2023-07-06T19:21:13.881Z,22.50
2023-07-06T19:23:42.525Z,22.40
2023-07-06T19:26:10.855Z,22.30
2023-07-06T19:28:40.184Z,22.00
2023-07-06T19:31:08.195Z,21.80
2023-07-06T19:33:36.079Z,21.80
2023-07-06T19:36:05.997Z,21.70
2023-07-06T19:38:34.069Z,21.50
2023-07-06T19:41:01.815Z,21.50
2023-07-06T19:43:29.558Z,21.40
2023-07-06T19:46:19.182Z,21.30
2023-07-06T19:48:48.650Z,21.10
2023-07-06T19:51:20.755Z,20.90
2023-07-06T19:53:50.056Z,20.80
2023-07-06T19:56:18.970Z,20.70
2023-07-06T19:58:46.918Z,20.50
2023-07-06T20:01:17.430Z,20.40
2023-07-06T20:03:45.507Z,20.30
2023-07-06T20:06:14.635Z,20.20
2023-07-06T20:08:42.418Z,20.00
2023-07-06T20:11:11.111Z,19.90
2023-07-06T20:13:40.127Z,19.70
2023-07-06T20:16:13.353Z,19.60
2023-07-06T20:18:42.689Z,19.50
2023-07-06T20:21:10.390Z,19.50
2023-07-06T20:23:38.165Z,19.40
2023-07-06T20:26:05.992Z,19.30
2023-07-06T20:28:33.709Z,19.30
2023-07-06T20:31:03.630Z,19.20
2023-07-06T20:33:31.572Z,19.20
2023-07-06T20:36:03.697Z,19.10
2023-07-06T20:38:31.922Z,19.10
2023-07-06T20:40:59.962Z,19.00
2023-07-06T20:43:31.355Z,18.90
2023-07-06T20:45:59.411Z,18.90
2023-07-06T20:48:27.240Z,18.90
2023-07-06T20:50:55.635Z,18.80
2023-07-06T20:53:25.039Z,18.70
2023-07-06T20:55:52.821Z,18.70
2023-07-06T20:58:20.577Z,18.70
2023-07-06T21:00:48.301Z,18.60
2023-07-06T21:03:16.109Z,18.50
2023-07-06T21:05:43.868Z,18.40
2023-07-06T21:08:11.696Z,18.30
2023-07-06T21:10:42.669Z,18.30
2023-07-06T21:13:10.819Z,18.20
2023-07-06T21:15:38.512Z,18.10
2023-07-06T21:18:06.310Z,17.90
2023-07-06T21:20:34.093Z,17.90
2023-07-06T21:23:01.859Z,17.80
2023-07-06T21:25:29.999Z,17.80
2023-07-06T21:27:59.017Z,17.70
2023-07-06T21:30:26.836Z,17.70
2023-07-06T21:32:54.585Z,17.70
2023-07-06T21:35:23.029Z,17.60
2023-07-06T21:37:52.229Z,17.60
2023-07-06T21:40:20.337Z,17.60
2023-07-06T21:42:48.111Z,17.60
2023-07-06T21:45:17.228Z,17.50
2023-07-06T21:47:45.874Z,17.50
2023-07-06T21:50:14.060Z,17.40
2023-07-06T21:52:41.794Z,17.40
2023-07-06T21:55:10.129Z,17.50
2023-07-06T21:57:38.007Z,17.50
2023-07-06T22:00:14.954Z,17.50
2023-07-06T22:02:47.424Z,17.40
2023-07-06T22:05:15.320Z,17.40
2023-07-06T22:07:43.086Z,17.30
2023-07-06T22:10:14.029Z,17.30
2023-07-06T22:12:42.338Z,17.30
2023-07-06T22:15:14.141Z,17.30
2023-07-06T22:17:51.389Z,17.20
2023-07-06T22:20:19.774Z,17.20
2023-07-06T22:22:47.513Z,17.20
2023-07-06T22:25:15.570Z,17.10
2023-07-06T22:27:43.320Z,17.10
2023-07-06T22:30:11.527Z,17.10
2023-07-06T22:32:39.279Z,17.10
2023-07-06T22:35:08.993Z,17.00
2023-07-06T22:37:36.763Z,17.00
2023-07-06T22:40:05.797Z,17.00
2023-07-06T22:42:34.011Z,16.90
2023-07-06T22:45:02.170Z,16.90
2023-07-06T22:47:30.385Z,17.00
2023-07-06T22:50:00.951Z,17.00
2023-07-06T22:52:30.558Z,17.00
2023-07-06T22:54:59.711Z,16.90
2023-07-06T22:57:28.830Z,16.80
2023-07-06T22:59:57.385Z,16.80
2023-07-06T23:02:25.313Z,16.80
2023-07-06T23:04:53.128Z,16.70
2023-07-06T23:07:20.833Z,16.70
2023-07-06T23:09:49.874Z,16.60
2023-07-06T23:12:18.224Z,16.60
2023-07-06T23:14:45.902Z,16.60
2023-07-06T23:17:13.886Z,16.60
2023-07-06T23:19:57.030Z,16.50
2023-07-06T23:22:33.389Z,16.50
2023-07-06T23:25:03.979Z,16.50
2023-07-06T23:27:32.514Z,16.50
2023-07-06T23:30:00.684Z,16.50
2023-07-06T23:32:30.281Z,16.40
2023-07-06T23:34:58.708Z,16.40
2023-07-06T23:37:28.056Z,16.30
2023-07-06T23:39:57.100Z,16.10
2023-07-06T23:42:26.401Z,16.10
2023-07-06T23:44:54.083Z,16.20
2023-07-06T23:47:21.882Z,16.10
2023-07-06T23:49:49.614Z,16.00
2023-07-06T23:52:17.343Z,16.00
2023-07-06T23:54:44.985Z,16.00
2023-07-06T23:57:12.773Z,16.00
2023-07-06T23:59:41.856Z,15.90
